Log of rake deals

Generated on 2020-Sep-30 21:40:05 (UTC).

Back to trades page

ID Timestamp Type Alliance Seller Location Buyer Item Amount Price
586 2020-Sep-30 19:33:35 market sale   eyebroowalet -01/18 theforexisne rake, 6000 minutes 1 999
585 2020-Sep-30 18:47:49 market sale   eyebroowalet -01/18 caballero211 rake, 6000 minutes 2 999
584 2020-Sep-30 16:56:28 market sale   eyebroowalet -01/18 mortadelazk1 rake, 6000 minutes 6 999
583 2020-Sep-30 16:35:48 market sale   eyebroowalet -01/18 mariazk12345 rake, 6000 minutes 6 999
582 2020-Sep-30 11:20:25 market sale   eyebroowalet -01/18 binboooonbin rake, 6000 minutes 1 999
581 2020-Sep-30 11:20:18 market sale   eyebroowalet -01/18 binboooonbin rake, 6000 minutes 1 999
580 2020-Sep-30 11:19:14 market sale   eyebroowalet -01/18 binboooonbin rake, 6000 minutes 1 999
579 2020-Sep-30 04:41:24 market sale   episodeseven 05/07 zeroodxero15 rake, 6000 minutes 1 1000
578 2020-Sep-30 03:46:20 market sale   gyydoobyhage 18/15 jhatniel1234 rake, 6000 minutes 2 1000
577 2020-Sep-29 22:00:36 market sale   mariaperez12 -01/-01 iamjohngalt1 rake, 3584 minutes 1 550
576 2020-Sep-29 15:12:27 market sale   gyydoobyhage 18/15 pirragameoss rake, 6000 minutes 1 1000
575 2020-Sep-29 06:30:14 market sale   episodeseven 05/07 zeroodxero14 rake, 6000 minutes 1 1000
574 2020-Sep-29 01:52:55 market sale   gyydoobyhage 18/15 playaccount1 rake, 6000 minutes 18 1000
573 2020-Sep-28 23:14:05 market sale   episodeseven 05/07 waxprospeos1 rake, 6000 minutes 6 1000
572 2020-Sep-28 19:14:02 market sale   gyydoobyhage 18/15 scotstyris12 rake, 6000 minutes 2 1000
571 2020-Sep-28 04:10:15 market sale   eyebroowalet -01/18 erzaminegold rake, 6000 minutes 1 1276
570 2020-Sep-27 12:25:39 market sale   eyebroowalet -01/18 pedrorcprofe rake, 6000 minutes 3 1276
569 2020-Sep-27 04:12:43 market sale   eyebroowalet -01/18 pedrorcprofe rake, 6000 minutes 3 1276
568 2020-Sep-27 01:41:55 market sale   eyebroowalet -01/18 55ughettoglp rake, 6000 minutes 1 1276
567 2020-Sep-26 17:18:45 market sale   eyebroowalet -01/18 tihancik5353 rake, 6000 minutes 1 1276
566 2020-Sep-26 17:17:13 market sale   eyebroowalet -01/18 tihancik5353 rake, 6000 minutes 1 1276
565 2020-Sep-26 15:53:49 market sale   eyebroowalet -01/18 cgnovembertd rake, 6000 minutes 3 1276
564 2020-Sep-26 15:36:36 market sale   eyebroowalet -01/18 mariazk12345 rake, 6000 minutes 1 1276
563 2020-Sep-26 07:13:26 market sale   episodeseven 05/07 olenkarussia rake, 6000 minutes 3 1277
562 2020-Sep-26 02:21:01 market sale   episodeseven 05/07 fincmedinita rake, 6000 minutes 1 1277
561 2020-Sep-25 23:26:56 market sale   eyebroowalet -01/18 baladewa3333 rake, 6000 minutes 1 1276
560 2020-Sep-25 20:04:03 market sale   eyebroowalet -01/18 superiorkv23 rake, 6000 minutes 1 1276
559 2020-Sep-25 16:40:35 market sale   episodeseven 05/07 fernando1.tp rake, 6000 minutes 3 1277
558 2020-Sep-25 10:18:09 market sale   eyebroowalet -01/18 albertmarie2 rake, 6000 minutes 1 1276
557 2020-Sep-25 08:20:37 market sale   eyebroowalet -01/18 jonblanchard rake, 6000 minutes 6 1276
556 2020-Sep-25 05:26:46 market sale   eyebroowalet -01/18 netakirsc.m rake, 6000 minutes 1 1276
555 2020-Sep-24 07:48:49 market sale   eyebroowalet -01/18 infinitus211 rake, 6000 minutes 1 1278
554 2020-Sep-24 03:33:25 market sale   episodeseven 05/07 fernando1.tp rake, 6000 minutes 3 1277
553 2020-Sep-23 17:56:49 market sale   episodeseven 05/07 roshandhake5 rake, 6000 minutes 3 1277
552 2020-Sep-23 14:25:10 market sale   episodeseven 05/07 eospruebated rake, 6000 minutes 3 1277
551 2020-Sep-22 17:44:06 market sale   episodeseven 05/07 thedarklight rake, 6000 minutes 1 1277
550 2020-Sep-21 22:57:44 market sale   hezdinrugqge 01/-07 jhatniel4321 rake, 6000 minutes 3 1250
549 2020-Sep-21 18:58:57 market sale   hezdinrugqge 01/-07 mariazk12345 rake, 6000 minutes 10 1250
548 2020-Sep-21 01:13:30 market sale   episodeseven 05/07 xedgarvgax22 rake, 6000 minutes 3 1277
547 2020-Sep-20 21:28:33 market sale   eyebroowalet -01/18 afrominers12 rake, 6000 minutes 3 1278
546 2020-Sep-20 19:48:34 market sale   eyebroowalet -01/18 yuricartoonn rake, 6000 minutes 2 1278
545 2020-Sep-20 19:08:54 market sale   eyebroowalet -01/18 tribalman321 rake, 6000 minutes 5 1278
544 2020-Sep-20 18:39:33 market sale   episodeseven 05/07 fernando1.tp rake, 6000 minutes 3 1277
543 2020-Sep-20 18:05:32 market sale   eyebroowalet -01/18 ccoinbaserec rake, 6000 minutes 3 1278
542 2020-Sep-20 17:21:27 market sale   episodeseven 05/07 1manfrommoon rake, 6000 minutes 2 1277
541 2020-Sep-20 12:50:42 market sale   marisansochi 04/07 hotzenplotz5 rake, 6000 minutes 1 1550
540 2020-Sep-20 11:40:13 market sale   eyebroowalet -01/18 akashfida123 rake, 6000 minutes 1 1278
539 2020-Sep-20 07:22:16 market sale   davinzhofull 05/-14 iamjohngalt1 rake, 4025 minutes 2 740
538 2020-Sep-20 07:03:52 market sale   episodeseven 05/07 12345nabeeel rake, 6000 minutes 3 1277
537 2020-Sep-20 05:56:39 market sale   episodeseven 05/07 ombimuoxlast rake, 6000 minutes 1 1277
536 2020-Sep-19 14:48:52 market sale   episodeseven 05/07 ombimuoxlast rake, 6000 minutes 1 1277
535 2020-Sep-19 12:32:46 market sale   episodeseven 05/07 blueblu12345 rake, 6000 minutes 1 1277
534 2020-Sep-19 10:34:03 market sale   13zzmarley13 14/04 55ughettoglp rake, 6000 minutes 1 1280
533 2020-Sep-19 03:25:46 market sale   eyebroowalet -01/18 ccoinbaserec rake, 6000 minutes 4 1278
532 2020-Sep-18 22:53:42 market sale   eyebroowalet -01/18 royornand141 rake, 6000 minutes 2 1278
531 2020-Sep-18 19:01:04 market sale   eyebroowalet -01/18 templarx3333 rake, 6000 minutes 1 1278
530 2020-Sep-18 17:02:46 market sale   eyebroowalet -01/18 theaguerokun rake, 6000 minutes 1 1278
529 2020-Sep-18 16:34:24 market sale   eyebroowalet -01/18 skibbomuella rake, 6000 minutes 3 1278
528 2020-Sep-18 11:22:01 market sale   gyydoobyhage 18/15 netakirsc.m rake, 6000 minutes 1 1500
527 2020-Sep-18 09:39:09 market sale   episodeseven 05/07 blueblu12345 rake, 6000 minutes 1 1279
526 2020-Sep-18 06:48:43 market sale   episodeseven 05/07 zahirlehri11 rake, 6000 minutes 1 1279
525 2020-Sep-18 05:55:40 market sale   episodeseven 05/07 hotzenplotz5 rake, 6000 minutes 1 1279
524 2020-Sep-18 04:20:35 market sale   episodeseven 05/07 andriaff1312 rake, 6000 minutes 1 1279
523 2020-Sep-18 04:20:22 market sale   episodeseven 05/07 zahirlehri11 rake, 6000 minutes 2 1279
522 2020-Sep-18 04:10:16 market sale   episodeseven 05/07 blueblu12345 rake, 6000 minutes 1 1279
521 2020-Sep-17 21:45:55 market sale   episodeseven 05/07 aluminumcoin rake, 6000 minutes 1 1279
520 2020-Sep-17 19:36:54 market sale   episodeseven 05/07 ddanieleosdd rake, 6000 minutes 1 1279
519 2020-Sep-17 15:55:15 market sale   episodeseven 05/07 theaguerokun rake, 6000 minutes 1 1279
518 2020-Sep-17 15:32:56 market sale   episodeseven 05/07 thedarklight rake, 6000 minutes 1 1279
517 2020-Sep-17 10:42:46 market sale   hezdinrugqge 01/-07 chrizcellyyy rake, 6000 minutes 2 1300
516 2020-Sep-17 03:47:01 market sale   episodeseven 05/07 waxprospeos1 rake, 6000 minutes 3 1279
515 2020-Sep-16 20:34:37 market sale   episodeseven 05/07 pastelitoszk rake, 6000 minutes 3 1279
514 2020-Sep-15 22:22:02 market sale   episodeseven 05/07 seawater1234 rake, 6000 minutes 2 1279
513 2020-Sep-15 16:06:52 market sale   hezdinrugqge 01/-07 theaguerokun rake, 6000 minutes 1 1300
512 2020-Sep-15 14:33:19 market sale   episodeseven 05/07 iamjohngalt1 rake, 6000 minutes 3 1279
511 2020-Sep-15 13:06:25 market sale   episodeseven 05/07 cgnovembertd rake, 6000 minutes 3 1279
510 2020-Sep-15 11:39:06 market sale   episodeseven 05/07 55ughettoglp rake, 6000 minutes 1 1279
509 2020-Sep-15 09:13:20 market sale   episodeseven 05/07 andriaff1312 rake, 6000 minutes 2 1279
508 2020-Sep-15 04:51:08 market sale   hezdinrugqge 01/-07 zeroodxero15 rake, 6000 minutes 2 1300
507 2020-Sep-15 01:09:33 market sale   episodeseven 05/07 kofilemornas rake, 6000 minutes 1 1279
506 2020-Sep-15 00:02:03 market sale   episodeseven 05/07 juanseolayap rake, 6000 minutes 2 1279
505 2020-Sep-14 22:12:29 market sale   episodeseven 05/07 melocoton123 rake, 6000 minutes 3 1279
504 2020-Sep-14 21:24:12 market sale   hezdinrugqge 01/-07 zeroodxero14 rake, 6000 minutes 2 1300
503 2020-Sep-14 17:05:38 market sale   hezdinrugqge 01/-07 caballero211 rake, 6000 minutes 1 1300
502 2020-Sep-14 14:36:25 market sale   hezdinrugqge 01/-07 caballero211 rake, 6000 minutes 1 1300
501 2020-Sep-13 19:01:56 market sale   eyebroowalet -01/18 freeedm12345 rake, 6000 minutes 1 1549
500 2020-Sep-13 14:30:48 market sale   episodeseven 05/07 binboooonbin rake, 6000 minutes 1 1299
499 2020-Sep-12 23:22:52 market sale   hezdinrugqge 01/-07 tribalman321 rake, 6000 minutes 4 1500
498 2020-Sep-12 18:12:42 market sale   gyydoobyhage 18/15 theforexisne rake, 6000 minutes 1 1500
497 2020-Sep-12 17:54:00 market sale   davinzhofull 09/-19 fernando1.tp rake, 6000 minutes 1 1400
496 2020-Sep-12 04:44:33 market sale   eyebroowalet -01/18 zeroodxero14 rake, 6000 minutes 1 1549
495 2020-Sep-11 21:06:25 market sale   gyydoobyhage 18/15 chrizcellyyy rake, 6000 minutes 2 1500
494 2020-Sep-11 17:10:17 market sale   davinzhofull 09/-19 binboooonbin rake, 6000 minutes 1 1400
493 2020-Sep-11 12:39:52 market sale   hezdinrugqge 01/-07 lordjay12345 rake, 6000 minutes 3 1500
492 2020-Sep-11 09:43:26 market sale   davinzhofull 09/-19 angeles12345 rake, 6000 minutes 3 1400
491 2020-Sep-10 22:04:38 market sale   gyydoobyhage 18/15 luciana123pk rake, 6000 minutes 3 1500
490 2020-Sep-10 15:05:32 market sale   gyydoobyhage 18/15 shawnvaradi2 rake, 6000 minutes 2 1500
489 2020-Sep-10 11:47:33 market sale   gyydoobyhage 18/15 pedrorcprofe rake, 6000 minutes 1 1500
488 2020-Sep-10 11:38:31 market sale   gyydoobyhage 18/15 pedrorcprofe rake, 6000 minutes 1 1500
487 2020-Sep-10 08:28:10 market sale   hezdinrugqge 01/-07 cryptotrade1 rake, 6000 minutes 1 1500
486 2020-Sep-10 06:29:29 market sale   hezdinrugqge 01/-07 blueblu12345 rake, 6000 minutes 1 1500
485 2020-Sep-09 23:38:44 market sale   13zzmarley13 -01/-01 4321yamez321 rake, 4440 minutes 1 1
484 2020-Sep-09 21:49:40 market sale   hezdinrugqge 01/-07 angeles12345 rake, 6000 minutes 1 1500
483 2020-Sep-09 21:29:22 market sale   hezdinrugqge 01/-07 jhatniel1234 rake, 6000 minutes 2 1500
482 2020-Sep-09 18:41:54 market sale   eyebroowalet -01/18 konstantin21 rake, 6000 minutes 1 1549
481 2020-Sep-09 16:18:51 market sale   eyebroowalet -01/18 royornand141 rake, 6000 minutes 1 1549
480 2020-Sep-09 04:19:18 market sale   hezdinrugqge 01/-07 binboooonbin rake, 6000 minutes 1 1500
479 2020-Sep-09 00:57:25 market sale   hezdinrugqge 01/-07 blueblu12345 rake, 6000 minutes 1 1500
478 2020-Sep-08 22:07:32 market sale   hezdinrugqge 01/-07 fernando1.tp rake, 6000 minutes 1 1500
477 2020-Sep-08 15:41:33 market sale   hezdinrugqge 01/-07 55ughettoglp rake, 6000 minutes 1 1500
476 2020-Sep-08 13:40:09 market sale   hezdinrugqge 01/-07 blueblu12345 rake, 6000 minutes 1 1500
475 2020-Sep-08 12:00:21 market sale   hezdinrugqge 01/-07 pedrorcprofe rake, 6000 minutes 1 1500
474 2020-Sep-08 11:21:43 market sale   eyebroowalet -01/18 theforexisne rake, 6000 minutes 1 1549
473 2020-Sep-08 11:21:27 market sale   eyebroowalet -01/18 theforexisne rake, 6000 minutes 1 1549
472 2020-Sep-08 04:18:44 market sale   hezdinrugqge 01/-07 temileyeomop rake, 6000 minutes 3 1500
471 2020-Sep-07 19:04:27 market sale   eyebroowalet -01/18 cookamungage rake, 6000 minutes 1 1549
470 2020-Sep-07 17:43:45 market sale   hezdinrugqge 01/-07 qkdmbv5nfdyy rake, 6000 minutes 2 1500
469 2020-Sep-07 04:24:45 market sale   eyebroowalet -01/18 jonblanchard rake, 6000 minutes 6 1549
468 2020-Sep-07 04:05:26 market sale   episodeseven 05/07 zahirlehri11 rake, 6000 minutes 1 1549
467 2020-Sep-07 04:04:56 market sale   episodeseven 05/07 zahirlehri11 rake, 6000 minutes 2 1549
466 2020-Sep-07 03:36:34 market sale   episodeseven 05/07 jeandralheei rake, 6000 minutes 1 1549
465 2020-Sep-06 22:08:50 market sale   episodeseven 05/07 xedgarvgax22 rake, 6000 minutes 1 1549
464 2020-Sep-06 19:46:38 market sale   episodeseven 05/07 zeroodxero15 rake, 6000 minutes 1 1549
463 2020-Sep-06 17:01:31 market sale   gyydoobyhage 18/15 templarx3333 rake, 6000 minutes 1 1600
462 2020-Sep-06 11:26:42 market sale   eyebroowalet -01/18 ganngrel1234 rake, 6000 minutes 2 1549
461 2020-Sep-06 09:55:04 market sale   episodeseven 05/07 emekasegun12 rake, 6000 minutes 3 1549
460 2020-Sep-06 09:50:07 market sale   episodeseven 05/07 emekasegun12 rake, 6000 minutes 1 1549
459 2020-Sep-06 06:40:45 market sale   upclassgames -14/16 cryptopekkav rake, 6000 minutes 3 1550
458 2020-Sep-06 04:41:47 market sale   13zzmarley13 -11/-04 temizinooooo rake, 6000 minutes 1 1800
457 2020-Sep-05 22:46:52 market sale   episodeseven 05/07 tribalman321 rake, 6000 minutes 3 1549
456 2020-Sep-05 20:40:41 market sale   episodeseven 05/07 ganngrel1234 rake, 6000 minutes 2 1549
455 2020-Sep-05 18:48:08 market sale   eyebroowalet -01/18 bakremartins rake, 6000 minutes 1 1549
454 2020-Sep-05 18:21:33 market sale   marisansochi 04/07 gyzdgnzxg4ge rake, 6000 minutes 1 1550
453 2020-Sep-05 17:22:36 market sale   eyebroowalet -01/18 rehanustad11 rake, 6000 minutes 1 1549
452 2020-Sep-05 13:11:15 market sale   marisansochi 04/07 seawater1234 rake, 6000 minutes 2 1550
451 2020-Sep-05 11:21:46 market sale   episodeseven 05/07 jeandralheei rake, 6000 minutes 1 1549
450 2020-Sep-05 03:38:33 market sale   eyebroowalet -01/18 21mielyaders rake, 6000 minutes 1 1549
449 2020-Sep-04 23:46:58 market sale   eosgino33333 -01/-01 extrariceeee rake, 2114 minutes 1 500
448 2020-Sep-04 22:15:44 market sale   matatanindie -01/-01 seawater1234 rake, 6000 minutes 1 1549
447 2020-Sep-04 13:52:37 market sale   marisansochi 04/07 onemanshow2x rake, 6000 minutes 3 1550
446 2020-Sep-04 08:06:03 market sale   eyebroowalet -01/18 temizinooooo rake, 6000 minutes 1 1549
445 2020-Sep-04 06:49:38 market sale   episodeseven 05/07 olenkarussia rake, 6000 minutes 3 1549
444 2020-Sep-04 06:30:43 market sale   episodeseven 05/07 brendonrossi rake, 6000 minutes 12 1549
443 2020-Sep-03 15:47:34 market sale   danieldomams -01/-01 extrariceeee rake, 600 minutes 1 30
442 2020-Sep-03 12:19:22 market sale   marisansochi 04/07 daapocalypse rake, 6000 minutes 1 1550
441 2020-Sep-03 07:24:54 market sale   eyebroowalet -01/18 afrominers12 rake, 6000 minutes 1 1549
440 2020-Sep-03 05:11:09 market sale   eyebroowalet -01/18 royornand141 rake, 6000 minutes 2 1549
439 2020-Sep-03 00:36:02 market sale   eyebroowalet -01/18 churyaoktowb rake, 6000 minutes 3 1549
438 2020-Sep-02 21:32:08 market sale   hezdinrugqge 01/-07 davinzhofull rake, 6000 minutes 5 1600
437 2020-Sep-02 17:52:46 market sale   eyebroowalet -01/18 55ughettoglp rake, 6000 minutes 1 1549
436 2020-Sep-02 15:44:34 market sale   eyebroowalet -01/18 chrizcellyyy rake, 6000 minutes 3 1549
435 2020-Sep-02 14:05:07 market sale   episodeseven 05/07 topochozk123 rake, 6000 minutes 5 1549
434 2020-Sep-02 13:36:26 market sale   marisansochi 04/07 skibbomuella rake, 6000 minutes 3 1550
433 2020-Sep-02 13:34:27 market sale   hezdinrugqge 01/-07 davinzhofull rake, 6000 minutes 1 1600
432 2020-Sep-02 13:34:01 market sale   hezdinrugqge 01/-07 davinzhofull rake, 6000 minutes 3 1600
431 2020-Sep-02 04:34:18 market sale   eyebroowalet -01/18 vinaamelliya rake, 6000 minutes 1 1549
430 2020-Sep-02 04:13:04 market sale   episodeseven 05/07 topochozk123 rake, 6000 minutes 10 1549
429 2020-Sep-01 20:53:22 market sale   hezdinrugqge 01/-07 eosvirusnp32 rake, 6000 minutes 1 1600
428 2020-Sep-01 19:19:01 market sale   episodeseven 05/07 thedarklight rake, 6000 minutes 1 1549
427 2020-Sep-01 19:16:35 market sale   marisansochi 04/07 yuricartoonn rake, 6000 minutes 1 1600
426 2020-Sep-01 04:34:03 market sale   episodeseven 05/07 thedarklight rake, 6000 minutes 1 1550
425 2020-Sep-01 00:59:50 market sale   eyebroowalet -01/18 baladewa3333 rake, 6000 minutes 1 1549
424 2020-Sep-01 00:36:24 market sale   eyebroowalet -01/18 kariadah2251 rake, 6000 minutes 3 1549
423 2020-Sep-01 00:10:47 market sale   eyebroowalet -01/18 binboooonbin rake, 6000 minutes 1 1549
422 2020-Aug-31 17:49:45 market sale   marisansochi 04/07 salmanamjad1 rake, 6000 minutes 1 1600
421 2020-Aug-31 17:29:58 market sale   episodeseven 05/07 simeoneige11 rake, 6000 minutes 2 1550
420 2020-Aug-31 16:38:49 market sale   gyydoobyhage 18/15 temilagszyyy rake, 6000 minutes 3 1900
419 2020-Aug-31 05:26:34 market sale   marisansochi 04/07 davinzhofull rake, 6000 minutes 3 1600
418 2020-Aug-31 05:25:56 market sale   eyebroowalet -01/18 mangomannnnn rake, 6000 minutes 2 1799
417 2020-Aug-31 00:44:11 market sale   marisansochi 04/07 royornand141 rake, 6000 minutes 2 1600
416 2020-Aug-30 16:37:32 market sale   hezdinrugqge 01/-07 qkdmbv5nfdyy rake, 6000 minutes 2 1600
415 2020-Aug-30 14:04:38 market sale   13zzmarley13 -11/-04 oromio112345 rake, 6000 minutes 2 1800
414 2020-Aug-30 14:03:20 market sale   13zzmarley13 -11/-04 oromio112345 rake, 6000 minutes 1 1800
413 2020-Aug-30 12:38:16 market sale   marisansochi 04/07 eosgino33333 rake, 6000 minutes 1 1600
412 2020-Aug-30 08:47:11 market sale   hezdinrugqge 01/-07 iamjohngalt1 rake, 6000 minutes 3 1600
411 2020-Aug-30 07:08:02 market sale   marisansochi 04/07 tribalman321 rake, 6000 minutes 3 1600
410 2020-Aug-30 06:43:16 market sale   marisansochi 04/07 micalsmit312 rake, 6000 minutes 1 1600
409 2020-Aug-30 06:13:16 market sale   marisansochi 04/07 johnsonbaba1 rake, 6000 minutes 1 1600
408 2020-Aug-30 05:07:53 market sale   marisansochi 04/07 rehanustad11 rake, 6000 minutes 1 1600
407 2020-Aug-30 04:37:05 market sale   marisansochi 04/07 fitarukemana rake, 6000 minutes 1 1600
406 2020-Aug-29 19:59:03 market sale   marisansochi 04/07 insurgento12 rake, 6000 minutes 1 1600
405 2020-Aug-29 19:53:12 market sale   marisansochi 04/07 conqistadorr rake, 6000 minutes 1 1600
404 2020-Aug-29 18:00:35 market sale   marisansochi 04/07 omid12345555 rake, 6000 minutes 1 1600
403 2020-Aug-29 14:38:51 market sale   marisansochi 04/07 konstantin21 rake, 6000 minutes 1 1600
402 2020-Aug-29 13:54:40 market sale   marisansochi 04/07 cactimancoin rake, 6000 minutes 3 1600
401 2020-Aug-29 13:46:37 market sale   marisansochi 04/07 dowidependen rake, 6000 minutes 1 1600
400 2020-Aug-29 12:55:24 market sale   marisansochi 04/07 chiriguitave rake, 6000 minutes 2 1600
399 2020-Aug-29 12:10:26 market sale   marisansochi 04/07 chiriguitave rake, 6000 minutes 1 1600
398 2020-Aug-29 09:24:32 market sale   13zzmarley13 -11/-04 eosmeetone34 rake, 6000 minutes 1 1800
397 2020-Aug-29 09:24:08 market sale   eyebroowalet -01/18 eosmeetone34 rake, 6000 minutes 2 1799
396 2020-Aug-29 08:53:05 market sale   marisansochi 04/07 theaguerokun rake, 6000 minutes 2 1600
395 2020-Aug-29 08:24:38 market sale   marisansochi 04/07 55ughettoglp rake, 6000 minutes 1 1600
394 2020-Aug-29 08:11:01 market sale   marisansochi 04/07 pglforeos123 rake, 6000 minutes 1 1600
393 2020-Aug-29 07:22:31 market sale   marisansochi 04/07 ashinaleks12 rake, 6000 minutes 1 1600
392 2020-Aug-29 05:17:11 market sale   marisansochi 04/07 earningustad rake, 6000 minutes 1 1600
391 2020-Aug-29 00:30:28 market sale   marisansochi 04/07 ganngrel1234 rake, 6000 minutes 2 1600
390 2020-Aug-28 23:44:37 market sale   eyebroowalet -01/18 cryptofo4eos rake, 6000 minutes 4 1799
389 2020-Aug-28 17:59:08 market sale   marisansochi 04/07 yuricartoonn rake, 6000 minutes 1 1600
388 2020-Aug-28 17:52:20 market sale   eyebroowalet -01/18 zeroodxero15 rake, 6000 minutes 2 1799
387 2020-Aug-28 13:50:41 market sale   13zzmarley13 -11/-04 blueblu12345 rake, 6000 minutes 3 1800
386 2020-Aug-28 01:17:37 market sale   eyebroowalet -01/18 dowidependen rake, 6000 minutes 1 1799
385 2020-Aug-27 23:42:12 market sale   eyebroowalet -01/18 thestellarcm rake, 6000 minutes 3 1799
384 2020-Aug-27 23:11:36 market sale   eyebroowalet -01/18 baladewa3333 rake, 6000 minutes 2 1799
383 2020-Aug-27 19:49:25 market sale   eyebroowalet -01/18 ashinaleks12 rake, 6000 minutes 1 1799
382 2020-Aug-27 09:50:03 market sale   13zzmarley13 -11/-04 12345nabeeel rake, 6000 minutes 6 1800
381 2020-Aug-27 08:29:14 market sale   eyebroowalet -01/18 mobibadshah1 rake, 6000 minutes 1 1799
380 2020-Aug-27 07:50:53 market sale   eyebroowalet -01/18 cookamungage rake, 6000 minutes 1 1799
379 2020-Aug-27 07:03:49 market sale   eyebroowalet -01/18 paulodeji123 rake, 6000 minutes 2 1799
378 2020-Aug-27 07:00:51 market sale   imranremo123 -01/-01 kitanakitana rake, 6000 minutes 1 1
377 2020-Aug-27 06:14:37 market sale   marisansochi 04/07 onemanshow2x rake, 6000 minutes 3 1878
376 2020-Aug-27 02:24:44 market sale   eyebroowalet -01/18 dianbluearfa rake, 6000 minutes 1 1799
375 2020-Aug-26 22:22:01 market sale   eyebroowalet -01/18 theaguerokun rake, 6000 minutes 1 1799
374 2020-Aug-26 22:21:26 market sale   eyebroowalet -01/18 zeroodxero14 rake, 6000 minutes 2 1799
373 2020-Aug-26 21:56:13 market sale   13zzmarley13 -11/-04 yuricartoonn rake, 6000 minutes 1 1800
372 2020-Aug-26 18:42:03 market sale   eyebroowalet -01/18 lordjay12345 rake, 6000 minutes 3 1799
371 2020-Aug-26 17:54:26 market sale   eyebroowalet -01/18 micalsmit312 rake, 6000 minutes 1 1799
370 2020-Aug-26 14:44:19 market sale   eyebroowalet -01/18 gamerscorner rake, 6000 minutes 3 1799
369 2020-Aug-26 12:27:12 market sale   eyebroowalet -01/18 binboooonbin rake, 6000 minutes 1 1799
368 2020-Aug-26 11:26:41 market sale   marisansochi 04/07 timboseosnet rake, 6000 minutes 1 1878
367 2020-Aug-26 09:00:53 market sale   marisansochi 04/07 netakirsc.m rake, 6000 minutes 1 1878
366 2020-Aug-26 08:32:41 market sale   eyebroowalet -01/18 eosonledgers rake, 6000 minutes 3 1799
365 2020-Aug-26 07:06:26 market sale   eyebroowalet -01/18 mobibadshah1 rake, 6000 minutes 1 1799
364 2020-Aug-26 05:26:19 market sale   13zzmarley13 -11/-04 yuricartoonn rake, 6000 minutes 1 1800
363 2020-Aug-26 05:24:47 market sale   marisansochi 04/07 thedarklight rake, 6000 minutes 2 1878
362 2020-Aug-25 20:46:43 market sale   marisansochi 04/07 procuratoros rake, 6000 minutes 1 1878
361 2020-Aug-25 19:41:55 market sale   13zzmarley13 -11/-04 baljeet25dec rake, 6000 minutes 1 1800
360 2020-Aug-25 17:14:15 market sale   samsunactive 13/10 daapocalypse rake, 6000 minutes 3 1850
359 2020-Aug-25 09:02:33 market sale   13zzmarley13 -11/-04 airdropemmy1 rake, 6000 minutes 2 1800
358 2020-Aug-25 07:48:22 market sale   eyebroowalet -01/18 kishanpatel1 rake, 6000 minutes 1 1799
357 2020-Aug-25 07:42:05 market sale   eyebroowalet -01/18 salmanamjad1 rake, 6000 minutes 1 1799
356 2020-Aug-25 06:59:28 market sale   samsunactive 13/10 zeroodxero14 rake, 6000 minutes 1 1850
355 2020-Aug-25 02:39:58 market sale   marisansochi 04/07 agushermawan rake, 6000 minutes 1 1878
354 2020-Aug-24 19:17:10 market sale   gyydoobyhage 18/15 tribalman321 rake, 6000 minutes 3 1900
353 2020-Aug-24 16:28:27 market sale   eyebroowalet -01/18 agushermawan rake, 6000 minutes 2 1799
352 2020-Aug-24 15:46:30 market sale   gyydoobyhage 18/15 davinzhofull rake, 6000 minutes 3 1900
351 2020-Aug-24 10:59:20 market sale   13zzmarley13 -11/-04 emekasegun12 rake, 6000 minutes 1 1800
350 2020-Aug-24 10:58:12 market sale   13zzmarley13 -11/-04 emekasegun12 rake, 6000 minutes 1 1800
349 2020-Aug-24 03:46:16 market sale   eyebroowalet -01/18 jhatniel1324 rake, 6000 minutes 1 1799
348 2020-Aug-24 03:45:09 market sale   kitanakitana -01/-01 jhatniel1324 rake, 6000 minutes 2 2200
347 2020-Aug-24 02:26:59 market sale   eyebroowalet -01/18 rehanustad11 rake, 6000 minutes 1 1799
346 2020-Aug-24 02:17:47 market sale   eyebroowalet -01/18 dianbluearfa rake, 6000 minutes 1 1799
345 2020-Aug-24 02:07:56 market sale   eyebroowalet -01/18 ponquesitozk rake, 6000 minutes 1 1799
344 2020-Aug-24 02:04:24 market sale   eyebroowalet -01/18 ponquesitozk rake, 6000 minutes 11 1799
343 2020-Aug-23 19:15:04 market sale   marisansochi 04/07 zeroodxero15 rake, 6000 minutes 1 1878
342 2020-Aug-23 18:26:22 market sale   eyebroowalet -01/18 earningustad rake, 6000 minutes 1 1799
341 2020-Aug-23 18:14:28 market sale   eyebroowalet -01/18 mobibadshah1 rake, 6000 minutes 1 1799
340 2020-Aug-23 18:12:45 market sale   gyydoobyhage 18/15 kolemxbajlum rake, 6000 minutes 3 1900
339 2020-Aug-23 17:42:59 market sale   marisansochi 04/07 cactimancoin rake, 6000 minutes 3 1878
338 2020-Aug-23 17:21:53 market sale   eyebroowalet -01/18 55ughettoglp rake, 6000 minutes 1 1799
337 2020-Aug-23 14:41:30 market sale   13zzmarley13 -11/-04 danieldomams rake, 6000 minutes 1 1800
336 2020-Aug-23 13:36:21 market sale   eyebroowalet -01/18 pukarinzk123 rake, 6000 minutes 11 1799
335 2020-Aug-23 11:32:13 market sale   marisansochi 04/07 gmanfreeeoss rake, 6000 minutes 3 1878
334 2020-Aug-23 08:59:21 market sale   marisansochi 04/07 gmanfreeeoss rake, 6000 minutes 3 1878
333 2020-Aug-23 07:48:54 market sale   eyebroowalet -01/18 salmanamjad1 rake, 6000 minutes 1 1799
332 2020-Aug-23 05:38:26 market sale   eyebroowalet -01/18 rehanustad11 rake, 6000 minutes 1 1799
331 2020-Aug-23 04:33:45 market sale   eyebroowalet -01/18 royornand141 rake, 6000 minutes 2 1799
330 2020-Aug-22 23:00:00 market sale   eyebroowalet -01/18 royornand141 rake, 6000 minutes 2 1799
329 2020-Aug-22 21:06:28 market sale   13zzmarley13 -11/-04 temileyeomop rake, 6000 minutes 3 1800
328 2020-Aug-22 18:06:33 market sale   eyebroowalet -01/18 afrominers12 rake, 6000 minutes 2 1799
327 2020-Aug-22 18:04:21 market sale   eyebroowalet -01/18 lomoblomlom1 rake, 6000 minutes 1 1799
326 2020-Aug-22 08:15:36 market sale   eyebroowalet -01/18 theforexisne rake, 6000 minutes 2 1799
325 2020-Aug-22 08:15:29 market sale   eyebroowalet -01/18 theforexisne rake, 6000 minutes 1 1799
324 2020-Aug-22 04:59:53 market sale   eyebroowalet -01/18 mangomannnnn rake, 6000 minutes 1 1799
323 2020-Aug-22 03:18:54 market sale   eyebroowalet -01/18 freedomeze12 rake, 6000 minutes 2 1799
322 2020-Aug-21 19:32:01 market sale   eyebroowalet -01/18 eoslittleman rake, 6000 minutes 1 1799
321 2020-Aug-21 18:53:13 market sale   marisansochi 04/07 citrixxxxxxx rake, 6000 minutes 9 1878
320 2020-Aug-21 18:18:17 market sale   eyebroowalet -01/18 johnsonbaba1 rake, 6000 minutes 1 1799
319 2020-Aug-21 17:33:30 market sale   eyebroowalet -01/18 prospectorii rake, 6000 minutes 3 1799
318 2020-Aug-21 17:14:02 market sale   eyebroowalet -01/18 eoslittleman rake, 6000 minutes 1 1799
317 2020-Aug-21 15:53:18 market sale   13zzmarley13 -11/-04 airdropemmy1 rake, 6000 minutes 2 1800
316 2020-Aug-21 14:13:04 market sale   marisansochi 04/07 brendonrossi rake, 6000 minutes 12 1878
315 2020-Aug-21 10:47:43 market sale   eyebroowalet -01/18 netakirsc.m rake, 6000 minutes 1 1799
314 2020-Aug-21 10:38:46 market sale   eyebroowalet -01/18 choirgirl.m rake, 6000 minutes 1 1799
313 2020-Aug-21 10:19:28 market sale   eyebroowalet -01/18 jeandralheei rake, 6000 minutes 1 1799
312 2020-Aug-21 10:04:01 market sale   marisansochi 04/07 galuhpratiwi rake, 6000 minutes 1 1878
311 2020-Aug-21 07:04:56 market sale   marisansochi 04/07 geagorybataa rake, 6000 minutes 6 1878
310 2020-Aug-21 06:50:30 market sale   marisansochi 04/07 noysiboyxxxx rake, 6000 minutes 9 1878
309 2020-Aug-21 06:18:02 market sale   eyebroowalet -01/18 mangomannnnn rake, 6000 minutes 6 1799
308 2020-Aug-21 06:09:33 market sale   eyebroowalet -01/18 jonblanchard rake, 6000 minutes 3 1799
307 2020-Aug-21 05:02:49 market sale   marisansochi 04/07 brendonrossi rake, 6000 minutes 12 1878
306 2020-Aug-20 23:23:12 market sale   marisansochi 04/07 rajjee2312np rake, 6000 minutes 6 1878
305 2020-Aug-20 14:24:38 market sale   marisansochi 04/07 geagorybataa rake, 6000 minutes 1 1878
304 2020-Aug-20 13:19:46 market sale   eyebroowalet -01/18 templarx3333 rake, 6000 minutes 1 1799
303 2020-Aug-20 12:58:22 market sale   eyebroowalet -01/18 choirgirl.m rake, 6000 minutes 1 1799
302 2020-Aug-20 12:28:43 market sale   eyebroowalet -01/18 netakirsc.m rake, 6000 minutes 1 1799
301 2020-Aug-20 12:10:39 market sale   samsunactive 17/08 hotzenplotz5 rake, 6000 minutes 1 1888
300 2020-Aug-20 12:07:25 market sale   eyebroowalet -01/18 luciana123pk rake, 6000 minutes 1 1799
299 2020-Aug-20 09:06:49 market sale   13zzmarley13 -11/-04 ayoemeka1234 rake, 6000 minutes 2 1800
298 2020-Aug-20 07:19:42 market sale   eyebroowalet -01/18 nubaacsukabl rake, 6000 minutes 10 1799
297 2020-Aug-20 06:25:58 market sale   eyebroowalet -01/18 choirgirl.m rake, 6000 minutes 1 1799
296 2020-Aug-20 06:18:42 market sale   eyebroowalet -01/18 csaguier1.tp rake, 6000 minutes 1 1799
295 2020-Aug-20 05:10:56 market sale   eyebroowalet -01/18 pastelitoszk rake, 6000 minutes 9 1799
294 2020-Aug-20 04:47:27 market sale   marisansochi 04/07 kootuwaxxxxx rake, 6000 minutes 9 1878
293 2020-Aug-19 23:11:14 market sale   marisansochi 04/07 churyaoktowb rake, 6000 minutes 2 1878
292 2020-Aug-19 21:48:03 market sale   13zzmarley13 -11/-04 eosmeetone34 rake, 6000 minutes 3 1800
291 2020-Aug-19 16:59:39 market sale   marisansochi 04/07 ravindra1234 rake, 6000 minutes 1 1878
290 2020-Aug-19 16:23:24 market sale   13zzmarley13 -11/-04 olenkarussia rake, 6000 minutes 3 1800
289 2020-Aug-19 06:26:31 market sale   bagindamerbo -24/-23 airdropemmy1 rake, 6000 minutes 2 1798
288 2020-Aug-19 05:22:18 market sale   eyebroowalet -01/18 templarx3333 rake, 6000 minutes 1 1799
287 2020-Aug-19 05:17:04 market sale   eyebroowalet -01/18 paulodeji123 rake, 6000 minutes 1 1799
286 2020-Aug-19 03:56:12 market sale   eyebroowalet -01/18 coinchitchat rake, 6000 minutes 3 1799
285 2020-Aug-18 21:41:17 market sale   bagindamerbo -24/-23 steliosfan11 rake, 6000 minutes 1 1798
284 2020-Aug-18 18:06:43 market sale   marisansochi 04/07 cactimancoin rake, 6000 minutes 3 1878
283 2020-Aug-18 17:58:48 market sale   episodeseven 05/07 shawnvaradi2 rake, 6000 minutes 6 1798
282 2020-Aug-18 17:24:46 market sale   episodeseven 05/07 netakirsc.m rake, 6000 minutes 1 1798
281 2020-Aug-18 16:35:49 market sale   marisansochi 04/07 luciana123pk rake, 6000 minutes 5 1878
280 2020-Aug-18 16:01:34 market sale   marisansochi 04/07 mariazk12345 rake, 6000 minutes 5 1878
279 2020-Aug-18 14:49:41 market sale   episodeseven 05/07 jordanzk1234 rake, 6000 minutes 5 1798
278 2020-Aug-18 08:59:34 market sale   episodeseven 05/07 tribalman321 rake, 6000 minutes 3 1798
277 2020-Aug-18 06:57:11 market sale   eyebroowalet -01/18 wazirmumlaki rake, 6000 minutes 3 1799
276 2020-Aug-18 02:00:02 market sale   13zzmarley13 -11/-04 oromio112345 rake, 6000 minutes 2 1800
275 2020-Aug-18 01:59:28 market sale   13zzmarley13 -11/-04 oromio112345 rake, 6000 minutes 1 1800
274 2020-Aug-17 19:58:36 market sale   episodeseven 05/07 juliuszzajda rake, 6000 minutes 1 1798
273 2020-Aug-17 18:26:26 market sale   eyebroowalet -01/18 konstantin21 rake, 6000 minutes 1 1799
272 2020-Aug-17 15:25:55 market sale   eyebroowalet -01/18 55ughettoglp rake, 6000 minutes 1 1799
271 2020-Aug-17 13:16:19 market sale   eyebroowalet -01/18 roshandhake5 rake, 6000 minutes 4 1799
270 2020-Aug-17 12:50:29 market sale   eyebroowalet -01/18 binboooonbin rake, 6000 minutes 1 1799
269 2020-Aug-17 06:31:49 market sale   episodeseven 05/07 iamjohngalt1 rake, 6000 minutes 3 1800
268 2020-Aug-17 05:50:47 market sale   episodeseven 05/07 rehanustad11 rake, 6000 minutes 1 1800
267 2020-Aug-17 04:25:32 market sale   13zzmarley13 -11/-04 blueblu12345 rake, 6000 minutes 2 1800
266 2020-Aug-16 20:50:55 market sale   episodeseven 05/07 matatanindie rake, 6000 minutes 5 1800
265 2020-Aug-16 12:40:01 market sale   episodeseven 05/07 matatanindie rake, 6000 minutes 1 1800
264 2020-Aug-16 12:10:14 market sale   13zzmarley13 -11/-04 blueblu12345 rake, 6000 minutes 1 1800
263 2020-Aug-16 09:44:26 market sale   episodeseven 05/07 kariadah2251 rake, 6000 minutes 1 1800
262 2020-Aug-16 09:43:01 market sale   episodeseven 05/07 kariadah2251 rake, 6000 minutes 1 1800
261 2020-Aug-16 07:43:36 market sale   episodeseven 05/07 earningustad rake, 6000 minutes 1 1800
260 2020-Aug-16 05:33:17 market sale   episodeseven 05/07 saqibzafarhe rake, 6000 minutes 3 1800
259 2020-Aug-16 05:14:52 market sale   episodeseven 05/07 johnsonbaba1 rake, 6000 minutes 1 1800
258 2020-Aug-16 04:38:45 market sale   episodeseven 05/07 danieldomams rake, 6000 minutes 1 1800
257 2020-Aug-16 02:09:00 market sale   13zzmarley13 -11/-04 alsemaalsema rake, 6000 minutes 1 1800
256 2020-Aug-16 00:27:21 market sale   episodeseven 05/07 vinaamelliya rake, 6000 minutes 1 1800
255 2020-Aug-15 22:47:44 market sale   episodeseven 05/07 dowidependen rake, 6000 minutes 1 1800
254 2020-Aug-15 20:09:18 market sale   episodeseven 05/07 kurdtmarques rake, 6000 minutes 1 1800
253 2020-Aug-15 18:01:55 market sale   episodeseven 05/07 micalsmit312 rake, 6000 minutes 1 1800
252 2020-Aug-15 15:12:48 market sale   hezdinrugqge 01/-07 qkdmbv5nfdyy rake, 6000 minutes 1 1700
251 2020-Aug-15 14:55:14 market sale   1ant34w2onec -01/-01 12345nabeeel rake, 6000 minutes 3 1750
250 2020-Aug-15 12:03:44 market sale   episodeseven 05/07 supremealian rake, 6000 minutes 3 1877
249 2020-Aug-15 11:16:09 market sale   hezdinrugqge 01/-07 laurenannchu rake, 6000 minutes 3 1700
248 2020-Aug-15 10:37:43 market sale   eyebroowalet -01/18 afrominers12 rake, 6000 minutes 1 1877
247 2020-Aug-15 10:37:38 market sale   eyebroowalet -01/18 afrominers12 rake, 6000 minutes 1 1877
246 2020-Aug-15 07:23:33 market sale   ayoemeka1234 -01/-01 rilwan1means rake, 6000 minutes 1 450
245 2020-Aug-15 07:22:43 market sale   1ant34w2onec -01/-01 ayoemeka1234 rake, 6000 minutes 1 1750
244 2020-Aug-15 06:43:08 market sale   1ant34w2onec -01/-01 infinitus211 rake, 6000 minutes 1 1750
243 2020-Aug-15 06:02:48 market sale   eyebroowalet -01/18 micalsmit312 rake, 6000 minutes 1 1877
242 2020-Aug-14 23:15:07 market sale   hezdinrugqge 01/-07 ayoemeka1234 rake, 6000 minutes 1 1700
241 2020-Aug-14 20:48:52 market sale   episodeseven 05/07 masmifthkmd1 rake, 6000 minutes 1 1877
240 2020-Aug-14 07:01:06 market sale   episodeseven 05/07 gmanfreeeoss rake, 6000 minutes 3 1877
239 2020-Aug-14 06:26:26 market sale   episodeseven 05/07 johanewa1111 rake, 6000 minutes 1 1877
238 2020-Aug-14 05:52:12 market sale   episodeseven 05/07 maheshsargam rake, 6000 minutes 1 1877
237 2020-Aug-14 05:33:38 market sale   eyebroowalet -01/18 mobibadshah1 rake, 6000 minutes 1 1877
236 2020-Aug-14 04:01:57 market sale   eyebroowalet -01/18 1ant34w2onec rake, 6000 minutes 2 1877
235 2020-Aug-14 03:58:44 market sale   noysiboyxxxx -01/-01 1ant34w2onec rake, 6000 minutes 3 2500
234 2020-Aug-14 02:48:33 market sale   eyebroowalet -01/18 coinchitchat rake, 6000 minutes 2 1877
233 2020-Aug-13 22:23:21 market sale   episodeseven 05/07 baladewa3333 rake, 6000 minutes 1 1877
232 2020-Aug-13 21:08:22 market sale   episodeseven 05/07 jhatniel1234 rake, 6000 minutes 1 1877
231 2020-Aug-13 20:04:42 market sale   episodeseven 05/07 johanewa1111 rake, 6000 minutes 2 1877
230 2020-Aug-13 17:19:39 market sale   eyebroowalet -01/18 earningustad rake, 6000 minutes 1 1877
229 2020-Aug-13 16:27:07 market sale   eyebroowalet -01/18 salmanamjad1 rake, 6000 minutes 1 1877
228 2020-Aug-13 14:13:41 market sale   episodeseven 05/07 brendonrossi rake, 6000 minutes 12 1877
227 2020-Aug-13 13:29:37 market sale   episodeseven 05/07 procuratoros rake, 6000 minutes 1 1877
226 2020-Aug-13 12:50:04 market sale   marisansochi 04/07 royornand141 rake, 6000 minutes 1 1878
225 2020-Aug-13 10:32:02 market sale   episodeseven 05/07 myeosprymary rake, 6000 minutes 3 1877
224 2020-Aug-13 08:51:38 market sale   eyebroowalet -01/18 cactimancoin rake, 6000 minutes 3 1877
223 2020-Aug-13 08:44:26 market sale   13zzmarley13 -11/-04 afrominers12 rake, 6000 minutes 1 1900
222 2020-Aug-13 08:30:26 market sale   episodeseven 05/07 sushilkumar2 rake, 6000 minutes 8 1877
221 2020-Aug-13 06:11:58 market sale   eyebroowalet -01/18 mobibadshah1 rake, 6000 minutes 1 1877
220 2020-Aug-13 05:24:39 market sale   eyebroowalet -01/18 rehanustad11 rake, 6000 minutes 1 1877
219 2020-Aug-13 01:25:02 market sale   eyebroowalet -01/18 royornand141 rake, 6000 minutes 1 1877
218 2020-Aug-13 00:46:08 market sale   episodeseven 05/07 fitarukemana rake, 6000 minutes 1 1877
217 2020-Aug-12 22:58:46 market sale   episodeseven 05/07 dowidependen rake, 6000 minutes 1 1877
216 2020-Aug-12 21:40:50 market sale   episodeseven 05/07 pastelitoszk rake, 6000 minutes 1 1877
215 2020-Aug-12 19:18:33 market sale   episodeseven 05/07 netakirsc.m rake, 6000 minutes 1 1877
214 2020-Aug-12 17:31:02 market sale   marisansochi 04/07 choirgirl.m rake, 6000 minutes 3 1878
213 2020-Aug-12 17:06:15 market sale   eyebroowalet -01/18 rehanustad11 rake, 6000 minutes 1 1877
212 2020-Aug-12 16:55:45 market sale   eyebroowalet -01/18 salmanamjad1 rake, 6000 minutes 1 1877
211 2020-Aug-12 16:14:41 market sale   eyebroowalet -01/18 mustyoziey12 rake, 6000 minutes 3 1877
210 2020-Aug-12 13:32:02 market sale   episodeseven 05/07 masmifthkmd1 rake, 6000 minutes 1 1877
209 2020-Aug-12 13:20:38 market sale   marisansochi 04/07 loyolorivas1 rake, 6000 minutes 3 1878
208 2020-Aug-12 13:18:51 market sale   eyebroowalet -01/18 55ughettoglp rake, 6000 minutes 1 1877
207 2020-Aug-12 12:49:23 market sale   episodeseven 05/07 tribalman321 rake, 6000 minutes 3 1877
206 2020-Aug-12 11:23:49 market sale   episodeseven 05/07 peponzk12345 rake, 6000 minutes 1 1877
205 2020-Aug-12 09:31:38 market sale   eyebroowalet -01/18 skibbomuella rake, 6000 minutes 3 1877
204 2020-Aug-12 08:23:15 market sale   eyebroowalet -01/18 ayoemeka1234 rake, 6000 minutes 2 1877
203 2020-Aug-12 07:22:39 market sale   episodeseven 05/07 slavenkiyyyy rake, 6000 minutes 1 1877
202 2020-Aug-12 07:21:21 market sale   eyebroowalet -01/18 theaguerokun rake, 6000 minutes 1 1877
201 2020-Aug-12 07:11:30 market sale   eyebroowalet -01/18 thedarklight rake, 6000 minutes 3 1877
200 2020-Aug-12 06:59:12 market sale   eyebroowalet -01/18 skibbomuella rake, 6000 minutes 3 1877
199 2020-Aug-12 06:26:17 market sale   eyebroowalet -01/18 royornand141 rake, 6000 minutes 1 1877
198 2020-Aug-12 02:49:55 market sale   episodeseven 05/07 mastahgreyin rake, 6000 minutes 2 1877
197 2020-Aug-11 19:29:24 market sale   episodeseven 05/07 netakirsc.m rake, 6000 minutes 1 1877
196 2020-Aug-11 19:08:01 market sale   eyebroowalet -01/18 mobibadshah1 rake, 6000 minutes 1 1877
195 2020-Aug-11 17:51:20 market sale   eyebroowalet -01/18 bakremartins rake, 6000 minutes 3 1877
194 2020-Aug-11 16:18:08 market sale   episodeseven 05/07 yuricartoonn rake, 6000 minutes 3 1877
193 2020-Aug-11 16:05:51 market sale   episodeseven 05/07 theaguerokun rake, 6000 minutes 2 1877
192 2020-Aug-11 16:02:50 market sale   episodeseven 05/07 zeroodxero14 rake, 6000 minutes 3 1877
191 2020-Aug-11 14:50:38 market sale   episodeseven 05/07 jhatniel1234 rake, 6000 minutes 1 1877
190 2020-Aug-11 14:39:30 market sale   episodeseven 05/07 jhatniel1234 rake, 6000 minutes 1 1877
189 2020-Aug-11 14:08:01 market sale   episodeseven 05/07 baladewa3333 rake, 6000 minutes 1 1877
188 2020-Aug-11 13:44:35 market sale   mangomannnnn -01/-01 onemanshow2x rake, 6000 minutes 3 2500
187 2020-Aug-11 11:54:28 market sale   eyebroowalet -01/18 jonblanchard rake, 6000 minutes 6 1877
186 2020-Aug-11 01:21:29 market sale   episodeseven 05/07 thestellarcm rake, 6000 minutes 3 1877
185 2020-Aug-11 00:41:13 market sale   episodeseven 05/07 mastahgreyin rake, 6000 minutes 1 1877
184 2020-Aug-10 16:22:48 market sale   eyebroowalet -01/18 templarx3333 rake, 6000 minutes 1 1877
183 2020-Aug-10 09:44:15 market sale   episodeseven 05/07 netakirsc.m rake, 6000 minutes 1 1877
182 2020-Aug-10 05:14:12 market sale   episodeseven 05/07 cryptchristo rake, 6000 minutes 3 1800
181 2020-Aug-10 01:25:04 market sale   episodeseven 05/07 masmifthkmd1 rake, 6000 minutes 1 1800
180 2020-Aug-10 00:34:16 market sale   episodeseven 05/07 lahordazk123 rake, 6000 minutes 3 1800
179 2020-Aug-10 00:22:00 market sale   episodeseven 05/07 jordanzk1234 rake, 6000 minutes 2 1800
178 2020-Aug-09 23:24:33 market sale   eyebroowalet -01/18 zeroodxero15 rake, 6000 minutes 1 1877
177 2020-Aug-09 19:23:51 market sale   episodeseven 05/07 ayoemeka1234 rake, 6000 minutes 1 1800
176 2020-Aug-09 19:22:02 market sale   luffymonkey3 -08/-26 ayoemeka1234 rake, 6000 minutes 1 1800
175 2020-Aug-09 18:04:50 market sale   episodeseven 05/07 earningustad rake, 6000 minutes 1 1800
174 2020-Aug-09 17:38:42 market sale   episodeseven 05/07 johnsonbaba1 rake, 6000 minutes 1 1800
173 2020-Aug-09 15:51:49 market sale   eyebroowalet -01/18 zeroodxero15 rake, 6000 minutes 2 1877
172 2020-Aug-09 12:49:33 market sale   episodeseven 05/07 ponquesitozk rake, 6000 minutes 1 1876
171 2020-Aug-09 06:37:16 market sale   eyebroowalet -01/18 freedomeze12 rake, 6000 minutes 1 1877
170 2020-Aug-09 00:13:29 market sale   eyebroowalet -01/18 galuhpratiwi rake, 6000 minutes 1 1877
169 2020-Aug-08 23:45:58 market sale   eyebroowalet -01/18 pastelitoszk rake, 6000 minutes 2 1877
168 2020-Aug-08 23:39:42 market sale   eyebroowalet -01/18 ponquesitozk rake, 6000 minutes 1 1877
167 2020-Aug-08 23:19:56 market sale   eyebroowalet -01/18 melocoton123 rake, 6000 minutes 2 1877
166 2020-Aug-08 23:08:27 market sale   eyebroowalet -01/18 luciana123pk rake, 6000 minutes 2 1877
165 2020-Aug-08 22:56:25 market sale   marisansochi 04/07 ilalangfarms rake, 6000 minutes 3 1878
164 2020-Aug-08 22:54:12 market sale   luffymonkey3 -08/-26 topochozk123 rake, 6000 minutes 1 1800
163 2020-Aug-08 20:49:23 market sale   luffymonkey3 -08/-26 baljeet25dec rake, 3884 minutes 1 900
162 2020-Aug-08 19:42:47 market sale   13zzmarley13 -11/-04 neevadajones rake, 6000 minutes 3 1900
161 2020-Aug-08 18:57:28 market sale   eyebroowalet -01/18 conqistadorr rake, 6000 minutes 1 1877
160 2020-Aug-08 15:31:06 market sale   13zzmarley13 -11/-04 cryptonoinve rake, 6000 minutes 1 1900
159 2020-Aug-08 13:20:28 market sale   eyebroowalet -01/18 angeles12345 rake, 6000 minutes 1 1877
158 2020-Aug-08 13:19:03 market sale   eyebroowalet -01/18 topochozk123 rake, 6000 minutes 1 1877
157 2020-Aug-08 13:18:43 market sale   eyebroowalet -01/18 angeles12345 rake, 6000 minutes 1 1877
156 2020-Aug-08 12:40:10 market sale   marisansochi 04/07 cryptonoinve rake, 6000 minutes 1 1878
155 2020-Aug-08 12:15:45 market sale   13zzmarley13 -11/-04 aluminumcoin rake, 6000 minutes 1 1900
154 2020-Aug-08 11:15:35 market sale   eyebroowalet -01/18 danieldomams rake, 6000 minutes 1 1877
153 2020-Aug-08 11:09:52 market sale   eyebroowalet -01/18 prospectorii rake, 6000 minutes 3 1877
152 2020-Aug-08 10:59:39 market sale   eyebroowalet -01/18 55ughettoglp rake, 6000 minutes 1 1877
151 2020-Aug-08 09:22:13 market sale   13zzmarley13 -11/-04 insurgento12 rake, 6000 minutes 1 1900
150 2020-Aug-08 04:40:44 market sale   marisansochi 04/07 21mielyaders rake, 6000 minutes 3 1878
149 2020-Aug-08 03:11:45 market sale   13zzmarley13 -11/-04 eosvirusnp32 rake, 6000 minutes 1 1900
148 2020-Aug-07 23:15:36 market sale   eyebroowalet -01/18 qkdmbv5nfdyy rake, 6000 minutes 1 1877
147 2020-Aug-07 21:20:34 market sale   marisansochi 04/07 cactimancoin rake, 6000 minutes 3 1878
146 2020-Aug-07 19:58:03 market sale   eyebroowalet -01/18 xedgarvgax22 rake, 6000 minutes 1 1877
145 2020-Aug-07 17:50:57 market sale   marisansochi 04/07 theodorus324 rake, 6000 minutes 3 1878
144 2020-Aug-07 16:40:03 market sale   samsunactive 17/08 shawnvaradi2 rake, 6000 minutes 2 1888
143 2020-Aug-07 12:48:10 market sale   eyebroowalet -01/18 salmankhanss rake, 6000 minutes 3 1877
142 2020-Aug-07 12:09:50 market sale   eyebroowalet -01/18 eos23ujzmlig rake, 6000 minutes 8 1877
141 2020-Aug-07 12:09:38 market sale   eyebroowalet -01/18 eos23ujzmlig rake, 6000 minutes 4 1877
140 2020-Aug-07 11:53:25 market sale   marisansochi 04/07 loveyougullu rake, 6000 minutes 3 1878
139 2020-Aug-07 11:47:28 market sale   4321yamez321 -01/-01 luvhpluv2311 rake, 6000 minutes 3 1900
138 2020-Aug-07 10:51:44 market sale   marisansochi 04/07 rajjee2312np rake, 6000 minutes 3 1878
137 2020-Aug-07 09:53:06 market sale   gyydoobyhage 18/15 hotzenplotz5 rake, 6000 minutes 1 1900
136 2020-Aug-07 09:45:36 market sale   4321yamez321 -01/-01 danieldomams rake, 6000 minutes 1 1900
135 2020-Aug-07 09:40:49 market sale   4321yamez321 -01/-01 knightshadow rake, 6000 minutes 1 1900
134 2020-Aug-07 08:57:32 market sale   eyebroowalet -01/18 knightshadow rake, 6000 minutes 1 1877
133 2020-Aug-07 06:34:57 market sale   4321yamez321 -01/-01 eosmeetone34 rake, 6000 minutes 3 1900
132 2020-Aug-07 06:26:38 market sale   marisansochi 04/07 churyaoktowb rake, 6000 minutes 3 1878
131 2020-Aug-07 01:54:32 market sale   eyebroowalet -01/18 eoseospat123 rake, 6000 minutes 1 1877
130 2020-Aug-07 01:52:17 market sale   eyebroowalet -01/18 iqed4ecit.tp rake, 6000 minutes 1 1877
129 2020-Aug-06 21:24:57 market sale   marisansochi 04/07 emekasegun12 rake, 6000 minutes 1 1878
128 2020-Aug-06 19:07:54 market sale   xcggeosacc13 -03/-19 kitanakitana rake, 5400 minutes 1 999
127 2020-Aug-06 17:45:02 market sale   eyebroowalet -01/18 afrominers12 rake, 6000 minutes 3 1877
126 2020-Aug-06 17:09:37 market sale   gyydoobyhage 18/15 tribalman321 rake, 6000 minutes 3 1900
125 2020-Aug-06 15:33:30 market sale   eyebroowalet -01/18 binboooonbin rake, 6000 minutes 2 1879
124 2020-Aug-06 15:11:47 market sale   marisansochi 04/07 brendonrossi rake, 6000 minutes 12 1878
123 2020-Aug-06 14:22:32 market sale   eyebroowalet -01/18 seawater1234 rake, 6000 minutes 1 1879
122 2020-Aug-06 12:36:41 market sale   marisansochi 04/07 simeoneige11 rake, 6000 minutes 2 1878
121 2020-Aug-06 11:40:23 market sale   eyebroowalet -01/18 kowalska1111 rake, 6000 minutes 1 1879
120 2020-Aug-06 11:16:22 market sale   marisansochi 04/07 gi4doojzgqge rake, 6000 minutes 2 1878
119 2020-Aug-06 10:21:08 market sale   indrajeet121 -01/-01 cryptogameco rake, 6000 minutes 7 1900
118 2020-Aug-06 10:20:42 market sale   adasterunity -01/-01 cryptogameco rake, 6000 minutes 1 1888
117 2020-Aug-06 09:37:37 market sale   gyydoobyhage 18/15 gmanfreeeoss rake, 6000 minutes 2 1900
116 2020-Aug-06 09:04:13 market sale   marisansochi 04/07 ltachiuchiha rake, 6000 minutes 3 1878
115 2020-Aug-06 09:03:44 market sale   marisansochi 04/07 ltachiuchiha rake, 6000 minutes 3 1878
114 2020-Aug-06 08:25:51 market sale   gyydoobyhage 18/15 konstantin21 rake, 6000 minutes 1 1900
113 2020-Aug-06 06:43:48 market sale   eyebroowalet -01/18 eosvirusnp32 rake, 6000 minutes 1 1879
112 2020-Aug-06 06:42:46 market sale   gyydoobyhage 18/15 infinitus211 rake, 6000 minutes 1 1900
111 2020-Aug-06 06:39:54 market sale   eyebroowalet -01/18 eosvirusnp32 rake, 6000 minutes 1 1879
110 2020-Aug-06 05:31:19 market sale   eyebroowalet -01/18 gy3dmojqgege rake, 6000 minutes 2 1879
109 2020-Aug-06 05:30:40 market sale   eyebroowalet -01/18 gy3dmojqgege rake, 6000 minutes 1 1879
108 2020-Aug-06 05:16:55 market sale   gyydoobyhage 18/15 royornand141 rake, 6000 minutes 1 1900
107 2020-Aug-06 05:14:02 market sale   gyydoobyhage 18/15 royornand141 rake, 6000 minutes 2 1900
106 2020-Aug-06 05:13:53 market sale   gyydoobyhage 18/15 royornand141 rake, 6000 minutes 1 1900
105 2020-Aug-06 04:46:07 market sale   eyebroowalet -01/18 templarx3333 rake, 6000 minutes 1 1879
104 2020-Aug-06 04:39:00 market sale   gyydoobyhage 18/15 gamesmake143 rake, 6000 minutes 1 1900
103 2020-Aug-06 04:34:13 market sale   gyydoobyhage 18/15 lomoblomlom1 rake, 6000 minutes 2 1900
102 2020-Aug-06 04:22:56 market sale   prospector15 19/00 bagindamerbo rake, 6000 minutes 1 1900
101 2020-Aug-06 04:08:44 market sale   nexterworlds -01/-01 theaddario15 rake, 6000 minutes 2 1880
100 2020-Aug-06 04:02:07 market sale   gyydoobyhage 18/15 nayounscattr rake, 6000 minutes 3 1900
99 2020-Aug-06 03:26:32 market sale   gyydoobyhage 18/15 citrixxxxxxx rake, 6000 minutes 1 1900
98 2020-Aug-06 03:25:56 market sale   gmanfreeeoss -01/-01 citrixxxxxxx rake, 6000 minutes 2 1900
97 2020-Aug-06 02:34:30 market sale   eyebroowalet -01/18 coinchitchat rake, 6000 minutes 3 1879
96 2020-Aug-06 02:34:01 market sale   nexterworlds -01/-01 blueblu12345 rake, 6000 minutes 3 1880
95 2020-Aug-06 01:57:45 market sale   eyebroowalet -01/18 maddoggaming rake, 6000 minutes 3 1879
94 2020-Aug-06 01:28:01 market sale   nexterworlds -01/-01 vishalshaw25 rake, 6000 minutes 1 1880
93 2020-Aug-06 01:25:24 market sale   adasterunity -01/-01 vishalshaw25 rake, 5700 minutes 1 1398
92 2020-Aug-06 01:07:56 market sale   nexterworlds -01/-01 vishalshaw25 rake, 6000 minutes 2 1880
91 2020-Aug-06 00:56:58 market sale   gyydoobyhage 18/15 aluminumcoin rake, 6000 minutes 1 1900
90 2020-Aug-06 00:09:57 market sale   eyebroowalet -01/18 procuratoros rake, 6000 minutes 1 1900
89 2020-Aug-05 23:59:28 market sale   nexterworlds -01/-01 agushermawan rake, 6000 minutes 1 1880
88 2020-Aug-05 23:10:34 market sale   gyydoobyhage 18/15 johanewa1111 rake, 6000 minutes 1 1900
87 2020-Aug-05 22:19:38 market sale   nexterworlds -01/-01 digdigdigeos rake, 6000 minutes 3 1880
86 2020-Aug-05 21:52:54 market sale   nexterworlds -01/-01 eoseospat123 rake, 6000 minutes 1 1880
85 2020-Aug-05 21:47:51 market sale   gyydoobyhage 18/15 cookamungage rake, 6000 minutes 1 1900
84 2020-Aug-05 21:47:35 market sale   gyydoobyhage 18/15 cookamungage rake, 6000 minutes 1 1900
83 2020-Aug-05 21:28:13 market sale   nexterworlds -01/-01 wazirmumlaki rake, 6000 minutes 3 1880
82 2020-Aug-05 21:12:49 market sale   nexterworlds -01/-01 bakremartins rake, 6000 minutes 3 1880
81 2020-Aug-05 21:10:31 market sale   nexterworlds -01/-01 kowalska1111 rake, 6000 minutes 2 1880
80 2020-Aug-05 21:03:08 market sale   nexterworlds -01/-01 portofelueos rake, 6000 minutes 1 1880
79 2020-Aug-05 21:00:33 market sale   nexterworlds -01/-01 geytamruhege rake, 6000 minutes 1 1880
78 2020-Aug-05 20:04:27 market sale   nexterworlds -01/-01 saqibzafarhe rake, 6000 minutes 3 1880
77 2020-Aug-05 19:50:50 market sale   nexterworlds -01/-01 jonblanchard rake, 6000 minutes 3 1880
76 2020-Aug-05 19:42:58 market sale   gyydoobyhage 18/15 kootuwaxxxxx rake, 6000 minutes 3 1900
75 2020-Aug-05 19:38:25 market sale   nexterworlds -01/-01 aluminumcoin rake, 6000 minutes 1 1880
74 2020-Aug-05 19:31:20 market sale   gyydoobyhage 18/15 geagorybataa rake, 6000 minutes 3 1900
73 2020-Aug-05 19:22:57 market sale   gyydoobyhage 18/15 noysiboyxxxx rake, 6000 minutes 3 1900
72 2020-Aug-05 19:00:08 market sale   gyydoobyhage 18/15 mangomannnnn rake, 6000 minutes 3 1900
71 2020-Aug-05 18:58:51 market sale   eyebroowalet -01/18 gy2dsnbqgmge rake, 6000 minutes 25 1900
70 2020-Aug-05 18:51:28 market sale   gyydoobyhage 18/15 gmanfreeeoss rake, 6000 minutes 3 1900
69 2020-Aug-05 18:20:17 market sale   adasterunity -01/-01 viclydiadame rake, 6000 minutes 1 1555
68 2020-Aug-05 17:43:16 market sale   gyydoobyhage 18/15 choirgirl.m rake, 6000 minutes 2 2000
67 2020-Aug-05 17:39:37 market sale   marisansochi 04/07 12345nabeeel rake, 6000 minutes 3 1900
66 2020-Aug-05 17:21:37 market sale   marisansochi 04/07 gyzdmmbrgyge rake, 6000 minutes 24 1900
65 2020-Aug-05 16:39:58 market sale   marisansochi 04/07 upclassgames rake, 6000 minutes 6 1900
64 2020-Aug-05 16:31:45 market sale   marisansochi 04/07 pirragameoss rake, 6000 minutes 1 1900
63 2020-Aug-05 16:28:57 market sale   marisansochi 04/07 elosopanza55 rake, 6000 minutes 1 1900
62 2020-Aug-05 16:24:26 market sale   marisansochi 04/07 templarx3333 rake, 6000 minutes 1 1900
61 2020-Aug-05 16:20:32 market sale   prospector15 19/00 evildeath111 rake, 6000 minutes 6 1900
60 2020-Aug-05 16:02:39 market sale   prospector15 19/00 luffymonkey3 rake, 6000 minutes 3 1900
59 2020-Aug-05 15:49:55 market sale   prospector15 19/00 bagindamerbo rake, 6000 minutes 2 1900
58 2020-Aug-05 15:24:32 market sale   prospector15 19/00 gamerscorner rake, 6000 minutes 3 1900
57 2020-Aug-05 15:19:38 market sale   marisansochi 04/07 ethereumsuck rake, 6000 minutes 3 1900
56 2020-Aug-05 15:17:14 market sale   prospector15 19/00 akashfida123 rake, 6000 minutes 3 1900
55 2020-Aug-05 15:07:01 market sale   prospector15 19/00 gamerscorner rake, 6000 minutes 3 1900
54 2020-Aug-05 15:06:34 market sale   13zzmarley13 -11/-04 indrajeet121 rake, 6000 minutes 10 1750
53 2020-Aug-05 14:59:50 market sale   13zzmarley13 -11/-04 xcggeosacc13 rake, 6000 minutes 1 1750
52 2020-Aug-05 14:57:03 market sale   prospector15 19/00 eosgino33333 rake, 6000 minutes 1 1900
51 2020-Aug-05 14:53:20 market sale   13zzmarley13 -11/-04 sushilkumar2 rake, 6000 minutes 8 1750
50 2020-Aug-05 14:46:03 market sale   13zzmarley13 -11/-04 domonicrypto rake, 6000 minutes 1 1750
49 2020-Aug-05 14:40:03 market sale   13zzmarley13 -11/-04 iamjohngalt1 rake, 6000 minutes 3 1750
48 2020-Aug-05 14:25:59 market sale   13zzmarley13 -11/-04 olenkarussia rake, 6000 minutes 3 1750
47 2020-Aug-05 14:20:39 market sale   13zzmarley13 -11/-04 nexterworlds rake, 6000 minutes 30 1750
46 2020-Aug-05 14:07:09 market sale   gyydoobyhage 18/15 johanewa1111 rake, 6000 minutes 2 2000
45 2020-Aug-05 13:56:39 market sale   13zzmarley13 -11/-04 diveshshetty rake, 6000 minutes 3 1750
44 2020-Aug-05 13:53:32 market sale   13zzmarley13 -11/-04 puspendu1234 rake, 6000 minutes 30 1750
43 2020-Aug-05 13:52:54 market sale   13zzmarley13 -11/-04 vedic12sutra rake, 6000 minutes 1 1750
42 2020-Aug-05 13:40:11 market sale   13zzmarley13 -11/-04 gy2dsnbqgmge rake, 6000 minutes 3 1750
41 2020-Aug-05 13:38:07 market sale   13zzmarley13 -11/-04 recklessgame rake, 6000 minutes 3 1750
40 2020-Aug-05 13:37:10 market sale   adasterunity -01/-01 giztqmbsg4ge rake, 6000 minutes 1 1111
39 2020-Aug-05 13:36:45 market sale   adasterunity -01/-01 giztqmbsg4ge rake, 6000 minutes 1 999
38 2020-Aug-05 13:36:26 market sale   adasterunity -01/-01 giztqmbsg4ge rake, 6000 minutes 2 888
37 2020-Aug-04 15:21:39 market sale   adasterunity -01/-01 downupdownup rake, 6000 minutes 3 888
36 2020-Jul-18 00:07:11 market sale   wilfredoseos -01/-01 xedgarvgax22 rake, 6000 minutes 1 842
35 2020-Jul-08 20:00:28 market sale   adasterunity -01/-01 loveinterest rake, 6000 minutes 1 888
34 2020-Jul-05 15:43:33 market sale   adasterunity -01/-01 imthe5ervant rake, 6000 minutes 1 888
33 2020-Jul-05 15:43:07 market sale   adasterunity -01/-01 imthe5ervant rake, 6000 minutes 1 777
32 2020-Jul-02 22:21:30 market sale   adasterunity -01/-01 wilfredoseos rake, 6000 minutes 1 666
31 2020-Jun-20 05:16:10 market sale   xxxgaluarxxx 00/03 heirheirheir rake, 6000 minutes 1 1100
30 2020-Jun-20 05:16:02 market sale   adasterunity -01/-01 heirheirheir rake, 6000 minutes 1 1111
29 2020-Jun-20 05:15:55 market sale   qkdmbv5nfdyy -01/-01 heirheirheir rake, 6000 minutes 1 1100
28 2020-Jun-20 05:15:48 market sale   k1234512345n -01/-01 heirheirheir rake, 6000 minutes 1 1050
27 2020-Jun-09 14:24:00 market sale   adasterunity -01/-01 qkdmbv5nfdyy rake, 6000 minutes 1 999
26 2020-May-31 07:46:24 market sale   rrowp1vu5w1y -01/-07 adasterunity rake, 6000 minutes 16 500
25 2020-May-29 11:41:03 market sale   rrowp1vu5w1y -01/-07 adasterunity rake, 6000 minutes 3 500
24 2020-May-27 11:08:42 market sale   rrowp1vu5w1y -01/-07 ranaedrees11 rake, 6000 minutes 10 500
23 2020-May-12 13:51:37 market sale   xxxgaluarxxx 00/03 aloereccarts rake, 6000 minutes 1 3400
22 2020-May-05 01:37:12 market sale   rrowp1vu5w1y -01/-07 aliiiavciiii rake, 6000 minutes 2 3900
21 2020-May-01 10:33:36 market sale   xxxgaluarxxx 00/03 romarleneind rake, 6000 minutes 2 3400
20 2020-May-01 04:45:43 market sale   xxxgaluarxxx 00/03 eosdhangurun rake, 6000 minutes 1 3500
19 2020-May-01 00:10:07 market sale   prospector15 19/00 eostellagrg1 rake, 6000 minutes 1 3500
18 2020-Apr-30 06:34:37 market sale   prospector15 19/00 fdeabreu2you rake, 6000 minutes 1 3500
17 2020-Apr-30 03:32:43 market sale   xxxgaluarxxx 00/03 gyzdgnzxg4ge rake, 6000 minutes 2 3500
16 2020-Apr-30 00:56:41 market sale   georgez23eos 21/-03 romarleneind rake, 3200 minutes 1 1750
15 2020-Apr-29 22:58:28 market sale   prospector15 19/00 eostellagrg1 rake, 6000 minutes 2 3500
14 2020-Apr-29 14:18:25 market sale   eyebroowalet -01/18 eosdhangurun rake, 6000 minutes 1 3500
13 2020-Apr-27 15:16:28 market sale   rrowp1vu5w1y -01/-07 gamerscorner rake, 6000 minutes 1 3900
12 2020-Apr-27 15:16:09 market sale   rrowp1vu5w1y -01/-07 gamerscorner rake, 6000 minutes 2 3900
11 2020-Apr-26 14:03:37 market sale   prospector15 19/00 eosdhangurun rake, 6000 minutes 1 4000
10 2020-Apr-25 18:44:42 market sale   rrowp1vu5w1y -01/-07 ha3dmmrygyge rake, 6000 minutes 3 3900
9 2020-Apr-24 15:42:37 market sale   rrowp1vu5w1y -01/-07 ha3dmmrygyge rake, 6000 minutes 3 3900
8 2020-Apr-22 20:23:06 market sale   xxxgaluarxxx 00/03 w3rmfuy3xx1h rake, 6000 minutes 1 3800
7 2020-Apr-19 10:30:19 market sale   xxxgaluarxxx 00/03 georgez23eos rake, 6000 minutes 1 3800
6 2020-Mar-24 09:19:28 market sale   calaeoscala2 -16/18 1jomolungma1 rake, 2251 minutes 1 1
5 2020-Mar-24 05:07:08 market sale   calaeoscala2 -17/14 spainsontgeo rake, 2205 minutes 1 6
4 2020-Mar-24 05:06:56 market sale   calaeoscala2 -17/14 spainsontgeo rake, 2682 minutes 1 6
3 2020-Mar-23 02:59:39 market sale   prospector15 19/00 eoswalletak2 rake, 6000 minutes 1 14500
2 2020-Mar-23 02:33:32 market sale   xxxgaluarxxx 00/03 yend12345mat rake, 6000 minutes 1 14500
1 2020-Mar-18 19:50:50 market sale   episodeseven 05/07 calaeoscala2 rake, 6000 minutes 3 8000

Generated on 2020-Sep-30 21:40:05 (UTC).

Back to trades page